createdAt,value
2023-01-21T00:01:20.944Z,7.9
2023-01-21T00:06:20.577Z,10.7
2023-01-21T00:11:20.252Z,7.8
2023-01-21T00:16:21.919Z,6.8
2023-01-21T00:21:19.604Z,9.4
2023-01-21T00:26:19.290Z,7.6
2023-01-21T00:31:19.107Z,8.1
2023-01-21T00:36:18.724Z,7.5
2023-01-21T00:41:18.446Z,8.1
2023-01-21T00:46:18.145Z,10.9
2023-01-21T00:51:17.936Z,10.7
2023-01-21T00:56:17.544Z,8.6
2023-01-21T01:01:17.270Z,9.6
2023-01-21T01:06:16.888Z,11.5
2023-01-21T01:11:16.604Z,11.4
2023-01-21T01:16:16.371Z,11.6
2023-01-21T01:21:15.981Z,10.6
2023-01-21T01:26:15.634Z,10.1
2023-01-21T01:31:17.497Z,10.9
2023-01-21T01:36:15.053Z,8.4
2023-01-21T01:41:16.762Z,8.7
2023-01-21T01:46:14.402Z,8.4
2023-01-21T01:51:14.073Z,8.7
2023-01-21T01:56:13.685Z,8.5
2023-01-21T02:01:13.381Z,10.4
2023-01-21T02:06:13.187Z,8.3
2023-01-21T02:11:12.755Z,9.3
2023-01-21T02:16:12.410Z,8.0
2023-01-21T02:21:12.022Z,8.4
2023-01-21T02:26:11.672Z,9.5
2023-01-21T02:31:11.413Z,8.7
2023-01-21T02:36:11.000Z,10.5
2023-01-21T02:41:10.671Z,8.9
2023-01-21T02:46:10.354Z,10.6
2023-01-21T02:51:12.039Z,11.2
2023-01-21T02:56:09.637Z,10.6
2023-01-21T03:01:09.433Z,9.6
2023-01-21T03:06:08.947Z,8.6
2023-01-21T03:11:08.626Z,9.2
2023-01-21T03:16:08.353Z,8.2
2023-01-21T03:21:08.006Z,7.9
2023-01-21T03:31:07.409Z,8.3
2023-01-21T03:36:06.972Z,7.7
2023-01-21T03:41:06.640Z,8.7
2023-01-21T03:46:06.322Z,8.6
2023-01-21T04:01:05.366Z,8.5
2023-01-21T04:06:04.936Z,7.2
2023-01-21T04:11:04.632Z,8.9
2023-01-21T04:16:04.327Z,8.4
2023-01-21T04:21:04.187Z,9.5
2023-01-21T04:26:03.564Z,8.1
2023-01-21T04:31:03.235Z,11.1
2023-01-21T04:36:02.813Z,9.4
2023-01-21T04:41:02.495Z,10.0
2023-01-21T04:46:04.262Z,10.1
2023-01-21T04:51:01.916Z,11.9
2023-01-21T04:56:01.539Z,10.6
2023-01-21T05:01:01.230Z,10.7
2023-01-21T05:06:00.864Z,12.3
2023-01-21T05:11:00.513Z,10.0
2023-01-21T05:16:00.250Z,12.2
2023-01-21T05:21:00.022Z,10.6
2023-01-21T05:30:59.257Z,11.2
2023-01-21T05:35:58.841Z,10.5
2023-01-21T05:40:58.502Z,12.7
2023-01-21T05:46:00.211Z,13.9
2023-01-21T05:50:58.489Z,12.1
2023-01-21T05:55:57.638Z,12.8
2023-01-21T06:00:57.101Z,10.2
2023-01-21T06:05:59.251Z,10.9
2023-01-21T06:10:56.418Z,11.1
2023-01-21T06:15:56.210Z,9.4
2023-01-21T06:20:55.707Z,9.9
2023-01-21T06:25:55.391Z,12.8
2023-01-21T06:30:55.074Z,9.1
2023-01-21T06:35:54.662Z,13.3
2023-01-21T06:40:54.249Z,10.0
2023-01-21T06:45:53.819Z,10.5
2023-01-21T06:50:53.502Z,9.9
2023-01-21T06:55:53.050Z,10.2
2023-01-21T07:00:52.570Z,10.7
2023-01-21T07:05:52.096Z,10.1
2023-01-21T07:10:51.652Z,11.0
2023-01-21T07:15:51.183Z,9.5
2023-01-21T07:20:52.683Z,10.5
2023-01-21T07:25:50.204Z,13.3
2023-01-21T07:30:49.856Z,11.6
2023-01-21T07:35:49.296Z,11.4
2023-01-21T07:40:48.895Z,10.6
2023-01-21T07:45:48.436Z,10.3
2023-01-21T07:50:48.101Z,13.2
2023-01-21T07:55:47.626Z,12.5
2023-01-21T08:00:47.221Z,13.7
2023-01-21T08:05:46.561Z,12.4
2023-01-21T08:10:46.331Z,15.3
2023-01-21T08:15:45.859Z,13.3
2023-01-21T08:20:45.460Z,19.2
2023-01-21T08:25:44.876Z,21.4
2023-01-21T08:30:44.703Z,16.5
2023-01-21T08:35:44.082Z,25.0
2023-01-21T08:40:43.908Z,31.4
2023-01-21T08:45:43.411Z,33.4
2023-01-21T08:50:43.261Z,25.9
2023-01-21T08:55:42.591Z,22.7
2023-01-21T09:00:42.380Z,22.5
2023-01-21T09:05:41.809Z,19.5
2023-01-21T09:10:41.638Z,19.2
2023-01-21T09:15:41.025Z,18.3
2023-01-21T09:20:40.793Z,19.8
2023-01-21T09:25:40.232Z,17.2
2023-01-21T09:30:40.281Z,20.6
2023-01-21T09:35:39.471Z,21.1
2023-01-21T09:40:39.247Z,16.6
2023-01-21T09:45:38.698Z,16.3
2023-01-21T09:50:38.465Z,14.4
2023-01-21T09:55:37.887Z,21.3
2023-01-21T10:00:37.647Z,15.8
2023-01-21T10:05:37.103Z,14.8
2023-01-21T10:10:36.885Z,13.5
2023-01-21T10:15:36.362Z,12.8
2023-01-21T10:20:36.170Z,13.4
2023-01-21T10:25:35.663Z,15.5
2023-01-21T10:30:35.600Z,14.2
2023-01-21T10:35:34.978Z,15.2
2023-01-21T10:40:34.790Z,15.1
2023-01-21T10:45:34.380Z,14.3
2023-01-21T10:50:34.191Z,15.7
2023-01-21T10:55:33.662Z,14.7
2023-01-21T11:00:33.521Z,11.9
2023-01-21T11:05:33.183Z,13.9
2023-01-21T11:10:32.891Z,13.1
2023-01-21T11:15:32.697Z,12.5
2023-01-21T11:20:32.368Z,13.2
2023-01-21T11:25:32.088Z,12.7
2023-01-21T11:30:48.689Z,11.9
2023-01-21T11:40:31.307Z,12.2
2023-01-21T11:45:31.052Z,13.6
2023-01-21T11:50:30.779Z,12.6
2023-01-21T11:55:30.601Z,10.7
2023-01-21T12:00:30.395Z,11.1
2023-01-21T12:05:30.063Z,10.2
2023-01-21T12:10:29.992Z,9.2
2023-01-21T12:15:29.741Z,9.0
2023-01-21T12:20:29.325Z,8.9
2023-01-21T12:25:29.116Z,9.2
2023-01-21T12:30:32.918Z,9.1
2023-01-21T12:35:28.656Z,9.5
2023-01-21T12:40:28.411Z,9.4
2023-01-21T12:45:28.219Z,9.2
2023-01-21T12:50:29.917Z,9.9
2023-01-21T12:55:27.713Z,9.8
2023-01-21T13:00:27.521Z,8.6
2023-01-21T13:05:27.202Z,7.4
2023-01-21T13:10:26.922Z,6.8
2023-01-21T13:15:26.706Z,6.7
2023-01-21T13:20:26.484Z,8.5
2023-01-21T13:25:28.297Z,8.6
2023-01-21T13:30:26.052Z,8.1
2023-01-21T13:35:25.851Z,7.9
2023-01-21T13:40:25.620Z,6.6
2023-01-21T13:45:25.625Z,7.4
2023-01-21T13:50:25.142Z,5.5
2023-01-21T13:55:24.967Z,5.8
2023-01-21T14:00:24.722Z,6.3
2023-01-21T14:10:24.338Z,6.2
2023-01-21T14:15:24.064Z,7.3
2023-01-21T14:20:23.863Z,6.7
2023-01-21T14:25:23.738Z,5.7
2023-01-21T14:30:23.445Z,7.7
2023-01-21T14:35:23.212Z,8.3
2023-01-21T14:40:23.048Z,6.9
2023-01-21T14:45:22.779Z,5.8
2023-01-21T14:50:22.624Z,5.4
2023-01-21T14:55:22.328Z,5.3
2023-01-21T15:00:22.102Z,5.1
2023-01-21T15:05:21.978Z,5.8
2023-01-21T15:10:25.792Z,5.3
2023-01-21T15:15:21.539Z,5.0
2023-01-21T15:20:21.305Z,6.6
2023-01-21T15:25:21.216Z,6.0
2023-01-21T15:30:20.864Z,6.6
2023-01-21T15:35:20.696Z,6.4
2023-01-21T15:40:20.484Z,6.5
2023-01-21T15:45:20.527Z,6.3
2023-01-21T15:50:19.967Z,7.6
2023-01-21T15:55:20.005Z,5.6
2023-01-21T16:00:19.524Z,6.5
2023-01-21T16:10:19.065Z,6.8
2023-01-21T16:15:19.149Z,5.3
2023-01-21T16:20:18.574Z,6.1
2023-01-21T16:25:18.562Z,5.4
2023-01-21T16:30:17.977Z,7.7
2023-01-21T16:35:18.151Z,8.3
2023-01-21T16:40:17.502Z,7.0
2023-01-21T16:45:17.716Z,7.3
2023-01-21T16:50:16.933Z,8.2
2023-01-21T16:55:17.021Z,8.6
2023-01-21T17:00:16.352Z,9.8
2023-01-21T17:05:16.465Z,10.8
2023-01-21T17:10:15.825Z,9.2
2023-01-21T17:15:15.905Z,10.8
2023-01-21T17:20:15.157Z,20.3
2023-01-21T17:25:15.677Z,13.2
2023-01-21T17:30:14.491Z,17.0
2023-01-21T17:35:14.241Z,11.9
2023-01-21T17:40:15.879Z,11.4
2023-01-21T17:45:13.589Z,11.1
2023-01-21T17:50:13.236Z,10.3
2023-01-21T17:55:12.991Z,11.5
2023-01-21T18:00:12.731Z,10.7
2023-01-21T18:05:12.242Z,15.0
2023-01-21T18:10:13.846Z,18.2
2023-01-21T18:15:11.499Z,19.2
2023-01-21T18:20:11.165Z,26.6
2023-01-21T18:30:10.515Z,18.6
2023-01-21T18:35:10.191Z,31.3
2023-01-21T18:40:09.861Z,33.9
2023-01-21T18:45:09.555Z,25.6
2023-01-21T18:50:11.179Z,19.6
2023-01-21T18:55:08.872Z,19.8
2023-01-21T19:00:12.535Z,18.5
2023-01-21T19:05:08.217Z,20.4
2023-01-21T19:10:07.880Z,20.0
2023-01-21T19:15:07.606Z,21.1
2023-01-21T19:20:07.254Z,26.5
2023-01-21T19:25:06.983Z,24.3
2023-01-21T19:30:06.680Z,31.4
2023-01-21T19:35:06.359Z,30.0
2023-01-21T19:40:05.965Z,26.0
2023-01-21T19:45:05.656Z,26.5
2023-01-21T19:50:05.473Z,23.3
2023-01-21T19:55:07.058Z,25.4
2023-01-21T20:00:04.664Z,28.2
2023-01-21T20:05:04.368Z,25.8
2023-01-21T20:10:06.540Z,29.5
2023-01-21T20:15:03.778Z,26.4
2023-01-21T20:20:03.371Z,32.0
2023-01-21T20:25:03.078Z,29.3
2023-01-21T20:30:15.709Z,38.7
2023-01-21T20:35:02.310Z,47.3
2023-01-21T20:40:01.924Z,48.4
2023-01-21T20:45:01.667Z,41.9
2023-01-21T20:50:01.326Z,41.6
2023-01-21T20:55:00.915Z,44.7
2023-01-21T21:00:00.541Z,35.4
2023-01-21T21:05:00.287Z,42.7
2023-01-21T21:10:01.950Z,45.5
2023-01-21T21:14:59.591Z,38.0
2023-01-21T21:20:01.740Z,42.0
2023-01-21T21:24:58.884Z,47.9
2023-01-21T21:29:58.599Z,54.3
2023-01-21T21:35:00.783Z,47.0
2023-01-21T21:39:57.875Z,64.4
2023-01-21T21:44:57.573Z,61.0
2023-01-21T21:49:57.201Z,46.2
2023-01-21T21:54:56.891Z,55.7
2023-01-21T21:59:58.495Z,46.9
2023-01-21T22:04:56.140Z,47.1
2023-01-21T22:09:55.809Z,40.7
2023-01-21T22:14:55.476Z,41.4
2023-01-21T22:19:55.050Z,49.2
2023-01-21T22:24:54.930Z,38.6
2023-01-21T22:29:54.358Z,38.2
2023-01-21T22:34:54.023Z,42.1
2023-01-21T22:39:53.755Z,40.9
2023-01-21T22:44:55.304Z,40.7
2023-01-21T22:49:52.939Z,45.3
2023-01-21T22:54:52.584Z,44.1
2023-01-21T22:59:52.187Z,44.6
2023-01-21T23:04:51.830Z,59.7
2023-01-21T23:09:51.417Z,54.9
2023-01-21T23:14:50.958Z,48.9
2023-01-21T23:19:50.376Z,46.7
2023-01-21T23:24:52.269Z,46.8
2023-01-21T23:29:49.612Z,45.2
2023-01-21T23:34:49.434Z,52.8
2023-01-21T23:39:48.859Z,46.5
2023-01-21T23:44:50.700Z,47.9
2023-01-21T23:49:48.153Z,45.3
2023-01-21T23:54:47.956Z,36.1
2023-01-21T23:59:47.413Z,40.0
